createdAt,value
2022-12-06T00:05:02.155Z,21.25
2022-12-06T00:10:06.964Z,22.48
2022-12-06T00:15:09.673Z,18.73
2022-12-06T00:20:12.863Z,19.27
2022-12-06T00:25:17.781Z,20.92
2022-12-06T00:30:20.327Z,24.65
2022-12-06T00:35:22.918Z,25.38
2022-12-06T00:40:28.225Z,22.07
2022-12-06T00:45:30.749Z,25.20
2022-12-06T00:50:33.283Z,27.15
2022-12-06T00:55:37.165Z,24.58
2022-12-06T01:00:39.860Z,26.10
2022-12-06T01:05:42.812Z,21.67
2022-12-06T01:10:53.818Z,25.45
2022-12-06T01:15:57.407Z,23.50
2022-12-06T01:26:03.447Z,18.85
2022-12-06T01:31:08.126Z,20.17
2022-12-06T01:36:16.331Z,26.73
2022-12-06T01:41:20.338Z,23.63
2022-12-06T01:46:28.581Z,29.13
2022-12-06T01:51:31.442Z,25.83
2022-12-06T01:56:35.550Z,24.30
2022-12-06T02:01:39.543Z,22.08
2022-12-06T02:06:42.584Z,25.75
2022-12-06T02:11:47.334Z,28.20
2022-12-06T02:16:56.303Z,28.83
2022-12-06T02:22:03.807Z,22.65
2022-12-06T02:27:14.406Z,24.65
2022-12-06T02:32:19.239Z,27.33
2022-12-06T02:37:23.509Z,21.63
2022-12-06T02:42:27.155Z,20.50
2022-12-06T02:47:33.842Z,24.05
2022-12-06T02:52:38.892Z,20.95
2022-12-06T02:57:42.530Z,24.23
2022-12-06T03:07:49.502Z,20.42
2022-12-06T03:12:56.395Z,24.85
2022-12-06T03:18:00.962Z,26.05
2022-12-06T03:23:07.028Z,22.42
2022-12-06T03:28:11.462Z,23.25
2022-12-06T03:33:14.557Z,24.42
2022-12-06T03:38:20.223Z,29.25
2022-12-06T03:43:22.716Z,22.35
2022-12-06T03:48:28.243Z,21.42
2022-12-06T03:53:32.192Z,29.65
2022-12-06T03:58:34.588Z,24.85
2022-12-06T04:03:37.016Z,24.50
2022-12-06T04:08:40.751Z,22.58
2022-12-06T04:13:43.210Z,22.50
2022-12-06T04:18:45.611Z,28.23
2022-12-06T04:23:50.849Z,19.13
2022-12-06T04:29:11.389Z,15.40
2022-12-06T04:34:31.565Z,15.52
2022-12-06T04:39:35.417Z,16.60
2022-12-06T04:44:37.891Z,15.50
2022-12-06T04:49:40.299Z,13.95
2022-12-06T04:54:44.001Z,18.48
2022-12-06T04:59:47.117Z,19.15
2022-12-06T05:04:49.495Z,21.50
2022-12-06T05:09:53.160Z,17.00
2022-12-06T05:14:55.570Z,20.35
2022-12-06T05:19:58.251Z,18.05
2022-12-06T05:25:02.073Z,18.60
2022-12-06T05:30:04.984Z,19.08
2022-12-06T05:35:07.753Z,17.45
2022-12-06T05:40:12.416Z,19.90
2022-12-06T05:45:14.819Z,18.42
2022-12-06T05:50:17.291Z,18.77
2022-12-06T05:55:21.024Z,16.45
2022-12-06T06:00:23.434Z,20.35
2022-12-06T06:05:25.849Z,16.70
2022-12-06T06:10:29.561Z,15.40
2022-12-06T06:15:31.950Z,17.13
2022-12-06T06:20:34.512Z,17.13
2022-12-06T06:25:40.210Z,18.67
2022-12-06T06:30:42.559Z,14.25
2022-12-06T06:35:44.968Z,11.57
2022-12-06T06:40:48.652Z,15.55
2022-12-06T06:45:54.699Z,17.60
2022-12-06T06:50:58.013Z,17.70
2022-12-06T06:56:04.069Z,19.95
2022-12-06T07:01:07.566Z,21.13
2022-12-06T07:11:15.101Z,18.92
2022-12-06T07:16:17.573Z,14.45
2022-12-06T07:21:19.979Z,16.08
2022-12-06T07:26:24.540Z,16.95
2022-12-06T07:31:27.999Z,16.98
2022-12-06T07:41:51.754Z,20.67
2022-12-06T07:46:55.749Z,14.85
2022-12-06T07:51:58.382Z,18.08
2022-12-06T07:57:02.065Z,13.40
2022-12-06T08:02:04.826Z,16.40
2022-12-06T08:07:07.254Z,19.90
2022-12-06T08:12:10.991Z,17.75
2022-12-06T08:17:13.354Z,17.23
2022-12-06T08:22:15.743Z,15.32
2022-12-06T08:27:19.452Z,17.38
2022-12-06T08:32:21.771Z,19.13
2022-12-06T08:37:24.095Z,21.67
2022-12-06T08:42:27.806Z,13.10
2022-12-06T08:47:30.231Z,17.92
2022-12-06T08:52:32.645Z,11.75
2022-12-06T08:57:36.328Z,13.70
2022-12-06T09:02:39.564Z,15.85
2022-12-06T09:07:41.983Z,21.23
2022-12-06T09:12:45.837Z,31.48
2022-12-06T09:17:48.234Z,21.27
2022-12-06T09:22:50.632Z,7.57
2022-12-06T09:27:54.923Z,5.85
2022-12-06T09:32:57.298Z,8.55
2022-12-06T09:38:00.772Z,7.38
2022-12-06T09:48:23.212Z,5.32
2022-12-06T09:53:32.747Z,6.65
2022-12-06T09:58:43.336Z,8.10
2022-12-06T10:03:52.650Z,4.32
2022-12-06T10:09:04.317Z,2.88
2022-12-06T10:14:13.726Z,6.97
2022-12-06T10:19:23.511Z,3.35
2022-12-06T10:24:38.805Z,4.53
2022-12-06T10:29:45.909Z,2.75
2022-12-06T10:34:54.528Z,3.83
2022-12-06T10:40:00.727Z,3.42
2022-12-06T10:45:27.131Z,2.97
2022-12-06T10:50:31.637Z,3.58
2022-12-06T10:55:37.398Z,2.33
2022-12-06T11:00:43.321Z,3.92
2022-12-06T11:05:48.997Z,3.30
2022-12-06T11:10:53.121Z,3.67
2022-12-06T11:15:58.518Z,1.60
2022-12-06T11:21:02.683Z,2.95
2022-12-06T11:26:10.720Z,2.70
2022-12-06T11:31:26.403Z,3.63
2022-12-06T11:36:29.400Z,3.92
2022-12-06T11:41:34.796Z,4.82
2022-12-06T11:46:37.231Z,2.88
2022-12-06T11:51:40.137Z,2.75
2022-12-06T11:56:43.860Z,2.90
2022-12-06T12:01:47.515Z,5.72
2022-12-06T12:06:51.146Z,4.18
2022-12-06T12:11:57.011Z,5.53
2022-12-06T12:17:00.454Z,2.78
2022-12-06T12:27:27.157Z,6.10
2022-12-06T12:32:30.886Z,4.37
2022-12-06T12:37:33.305Z,4.25
2022-12-06T12:42:40.005Z,5.55
2022-12-06T12:47:56.281Z,5.07
2022-12-06T12:52:59.169Z,5.22
2022-12-06T12:58:03.223Z,6.60
2022-12-06T13:03:28.589Z,4.68
2022-12-06T13:08:35.383Z,4.15
2022-12-06T13:13:41.931Z,4.80
2022-12-06T13:18:47.844Z,4.70
2022-12-06T13:23:52.467Z,3.50
2022-12-06T13:28:57.508Z,5.00
2022-12-06T13:34:01.315Z,4.03
2022-12-06T13:39:18.609Z,3.85
2022-12-06T13:44:35.913Z,4.68
2022-12-06T13:49:48.868Z,4.45
2022-12-06T13:54:51.539Z,4.77
2022-12-06T13:59:53.982Z,2.72
2022-12-06T14:04:57.841Z,4.45
2022-12-06T14:10:08.168Z,6.00
2022-12-06T14:15:18.165Z,3.15
2022-12-06T14:20:23.941Z,3.72
2022-12-06T14:25:28.463Z,3.45
2022-12-06T14:30:30.964Z,2.97
2022-12-06T14:35:36.738Z,4.17
2022-12-06T14:40:55.105Z,3.10
2022-12-06T14:45:58.570Z,5.03
2022-12-06T14:56:05.948Z,5.90
2022-12-06T15:01:15.348Z,8.65
2022-12-06T15:06:19.132Z,4.07
2022-12-06T15:11:43.044Z,7.32
2022-12-06T15:16:46.381Z,5.90
2022-12-06T15:21:50.909Z,9.65
2022-12-06T15:26:55.027Z,6.05
2022-12-06T15:31:57.477Z,4.70
2022-12-06T15:37:38.290Z,6.47
2022-12-06T15:42:25.300Z,9.38
2022-12-06T15:47:27.733Z,6.57
2022-12-06T15:52:30.596Z,9.68
2022-12-06T15:57:34.305Z,16.40
2022-12-06T16:02:36.685Z,15.27
2022-12-06T16:07:39.165Z,15.93
2022-12-06T16:12:56.876Z,14.65
2022-12-06T16:17:59.238Z,8.35
2022-12-06T16:23:19.998Z,8.85
2022-12-06T16:28:23.913Z,7.10
2022-12-06T16:33:28.280Z,8.10
2022-12-06T16:38:31.220Z,10.25
2022-12-06T16:43:35.110Z,9.93
2022-12-06T16:48:37.489Z,14.65
2022-12-06T16:53:39.865Z,11.13
2022-12-06T16:58:43.612Z,12.43
2022-12-06T17:03:49.405Z,13.10
2022-12-06T17:08:52.128Z,14.50
2022-12-06T17:13:55.825Z,13.70
2022-12-06T17:18:58.281Z,13.98
2022-12-06T17:24:01.353Z,16.48
2022-12-06T17:29:05.643Z,15.35
2022-12-06T17:34:09.213Z,16.77
2022-12-06T17:44:15.412Z,14.30
2022-12-06T17:49:19.061Z,17.92
2022-12-06T17:59:25.617Z,17.17
2022-12-06T18:04:28.574Z,19.25
2022-12-06T18:09:30.962Z,21.92
2022-12-06T18:14:34.776Z,24.52
2022-12-06T18:19:40.304Z,23.38
2022-12-06T18:24:43.129Z,21.92
2022-12-06T18:29:47.033Z,26.60
2022-12-06T18:34:49.385Z,26.70
2022-12-06T18:39:51.802Z,27.30
2022-12-06T18:44:58.493Z,31.70
2022-12-06T18:50:01.180Z,28.08
2022-12-06T18:55:03.830Z,33.00
2022-12-06T19:00:09.284Z,32.70
2022-12-06T19:05:11.805Z,30.92
2022-12-06T19:10:14.281Z,38.38
2022-12-06T19:15:18.065Z,33.75
2022-12-06T19:20:20.545Z,32.50
2022-12-06T19:25:23.026Z,33.72
2022-12-06T19:30:26.845Z,37.03
2022-12-06T19:35:29.330Z,35.13
2022-12-06T19:40:31.733Z,35.20
2022-12-06T19:45:35.709Z,30.98
2022-12-06T19:50:38.243Z,34.45
2022-12-06T19:55:46.013Z,31.30
2022-12-06T20:00:50.672Z,35.28
2022-12-06T20:06:00.346Z,31.20
2022-12-06T20:11:03.119Z,35.40
2022-12-06T20:16:07.098Z,29.97
2022-12-06T20:21:09.515Z,37.03
2022-12-06T20:26:15.044Z,38.42
2022-12-06T20:31:19.883Z,31.48
2022-12-06T20:36:22.761Z,27.42
2022-12-06T20:41:26.674Z,27.90
2022-12-06T20:46:32.513Z,27.10
2022-12-06T20:51:34.959Z,31.05
2022-12-06T20:56:39.116Z,22.40
2022-12-06T21:01:43.143Z,26.58
2022-12-06T21:06:45.641Z,24.95
2022-12-06T21:11:48.567Z,23.75
2022-12-06T21:16:52.269Z,22.98
2022-12-06T21:21:57.742Z,24.50
2022-12-06T21:27:00.164Z,20.35
2022-12-06T21:32:03.963Z,22.60
2022-12-06T21:37:06.565Z,24.45
2022-12-06T21:42:15.300Z,21.53
2022-12-06T21:47:19.168Z,17.48
2022-12-06T21:52:21.607Z,16.60
2022-12-06T21:57:24.154Z,23.50
2022-12-06T22:02:28.024Z,18.85
2022-12-06T22:07:32.838Z,18.40
2022-12-06T22:12:36.354Z,26.75
2022-12-06T22:17:40.099Z,36.97
2022-12-06T22:22:42.498Z,19.92
2022-12-06T22:27:44.947Z,34.65
2022-12-06T22:32:48.849Z,36.80
2022-12-06T22:37:52.281Z,27.02
2022-12-06T22:42:54.765Z,33.10
2022-12-06T22:47:58.499Z,22.90
2022-12-06T22:53:00.879Z,22.02
2022-12-06T22:58:03.254Z,28.55
2022-12-06T23:03:07.027Z,23.25
2022-12-06T23:08:09.433Z,22.63
2022-12-06T23:13:11.877Z,35.60
2022-12-06T23:18:15.608Z,24.23
2022-12-06T23:23:18.036Z,23.38
2022-12-06T23:28:20.536Z,20.08
2022-12-06T23:33:24.242Z,20.48
2022-12-06T23:38:26.594Z,20.58
2022-12-06T23:43:29.016Z,28.10
2022-12-06T23:48:32.755Z,27.15
2022-12-06T23:53:35.530Z,27.75
2022-12-06T23:58:38.001Z,23.27
